createdAt,value
2018-08-11T00:00:08.126Z,100123.00
2018-08-11T00:00:39.312Z,100120.83
2018-08-11T00:01:10.442Z,100117.80
2018-08-11T00:01:41.625Z,100115.25
2018-08-11T00:02:12.760Z,100116.08
2018-08-11T00:02:43.883Z,100112.97
2018-08-11T00:03:15.029Z,100116.95
2018-08-11T00:03:46.192Z,100120.83
2018-08-11T00:04:17.300Z,100114.73
2018-08-11T00:04:48.423Z,100110.53
2018-08-11T00:05:19.644Z,100109.50
2018-08-11T00:05:50.868Z,100113.20
2018-08-11T00:06:22.068Z,100113.95
2018-08-11T00:06:53.313Z,100115.56
2018-08-11T00:07:24.445Z,100116.40
2018-08-11T00:07:55.568Z,100112.90
2018-08-11T00:08:26.691Z,100116.78
2018-08-11T00:08:57.864Z,100116.67
2018-08-11T00:09:29.109Z,100119.25
2018-08-11T00:10:00.284Z,100119.98
2018-08-11T00:10:31.491Z,100119.03
2018-08-11T00:11:02.664Z,100118.59
2018-08-11T00:11:33.781Z,100121.98
2018-08-11T00:12:05.005Z,100114.61
2018-08-11T00:12:36.181Z,100112.63
2018-08-11T00:13:07.320Z,100121.94
2018-08-11T00:13:39.209Z,100119.73
2018-08-11T00:14:10.395Z,100119.46
2018-08-11T00:14:41.606Z,100116.07
2018-08-11T00:15:12.797Z,100117.75
2018-08-11T00:15:44.016Z,100114.36
2018-08-11T00:16:15.184Z,100115.39
2018-08-11T00:16:46.364Z,100117.66
2018-08-11T00:17:17.589Z,100110.75
2018-08-11T00:17:48.710Z,100113.86
2018-08-11T00:18:20.106Z,100114.73
2018-08-11T00:18:51.289Z,100116.52
2018-08-11T00:19:22.439Z,100117.50
2018-08-11T00:19:53.607Z,100122.81
2018-08-11T00:20:24.780Z,100119.88
2018-08-11T00:20:55.964Z,100118.34
2018-08-11T00:21:27.134Z,100126.20
2018-08-11T00:21:58.240Z,100119.94
2018-08-11T00:22:29.344Z,100120.81
2018-08-11T00:23:00.458Z,100117.28
2018-08-11T00:23:31.629Z,100117.23
2018-08-11T00:24:02.741Z,100116.62
2018-08-11T00:24:34.085Z,100123.27
2018-08-11T00:25:05.845Z,100118.73
2018-08-11T00:25:37.014Z,100122.45
2018-08-11T00:26:08.133Z,100125.40
2018-08-11T00:26:39.251Z,100125.62
2018-08-11T00:27:10.360Z,100120.88
2018-08-11T00:27:41.544Z,100118.98
2018-08-11T00:28:12.845Z,100124.47
2018-08-11T00:28:43.969Z,100119.65
2018-08-11T00:29:15.225Z,100118.42
2018-08-11T00:29:46.348Z,100121.27
2018-08-11T00:30:17.516Z,100113.51
2018-08-11T00:30:48.627Z,100121.20
2018-08-11T00:31:19.744Z,100117.40
2018-08-11T00:31:50.948Z,100119.22
2018-08-11T00:32:22.064Z,100117.23
2018-08-11T00:32:53.180Z,100115.63
2018-08-11T00:33:24.296Z,100119.33
2018-08-11T00:33:55.403Z,100111.92
2018-08-11T00:34:26.503Z,100111.09
2018-08-11T00:34:57.616Z,100114.52
2018-08-11T00:35:28.813Z,100116.41
2018-08-11T00:35:59.981Z,100115.30
2018-08-11T00:36:31.167Z,100116.97
2018-08-11T00:37:02.307Z,100114.63
2018-08-11T00:37:33.532Z,100113.38
2018-08-11T00:38:04.719Z,100115.47
2018-08-11T00:38:35.890Z,100114.91
2018-08-11T00:39:07.084Z,100113.38
2018-08-11T00:39:38.197Z,100116.41
2018-08-11T00:40:09.377Z,100111.37
2018-08-11T00:40:40.598Z,100116.13
2018-08-11T00:41:11.716Z,100110.32
2018-08-11T00:41:42.887Z,100111.09
2018-08-11T00:42:14.052Z,100108.61
2018-08-11T00:42:45.208Z,100104.34
2018-08-11T00:43:16.388Z,100112.59
2018-08-11T00:43:47.571Z,100110.14
2018-08-11T00:44:18.763Z,100111.09
2018-08-11T00:44:49.928Z,100107.67
2018-08-11T00:45:21.136Z,100111.55
2018-08-11T00:45:52.284Z,100111.66
2018-08-11T00:46:23.460Z,100082.29
2018-08-11T00:46:54.621Z,100108.34
2018-08-11T00:47:25.804Z,100109.59
2018-08-11T00:47:56.913Z,100109.77
2018-08-11T00:48:28.084Z,100106.73
2018-08-11T00:49:00.252Z,100111.27
2018-08-11T00:49:31.452Z,100109.67
2018-08-11T00:50:02.579Z,100109.50
2018-08-11T00:50:33.688Z,100106.95
2018-08-11T00:51:04.946Z,100110.94
2018-08-11T00:51:36.182Z,100108.28
2018-08-11T00:52:07.343Z,100111.31
2018-08-11T00:52:38.451Z,100104.37
2018-08-11T00:53:09.660Z,100103.14
2018-08-11T00:53:40.890Z,100104.47
2018-08-11T00:54:12.015Z,100105.98
2018-08-11T00:54:43.187Z,100106.75
2018-08-11T00:55:14.419Z,100101.23
2018-08-11T00:55:45.611Z,100105.80
2018-08-11T00:56:16.832Z,100107.12
2018-08-11T00:56:47.952Z,100102.55
2018-08-11T00:57:19.076Z,100100.00
2018-08-11T00:57:50.251Z,100106.47
2018-08-11T00:58:21.415Z,100098.02
2018-08-11T00:58:52.581Z,100093.09
2018-08-11T00:59:23.784Z,100097.24
2018-08-11T00:59:54.911Z,100100.14
2018-08-11T01:00:26.027Z,100101.25
2018-08-11T01:00:57.137Z,100094.41
2018-08-11T01:01:28.252Z,100100.59
2018-08-11T01:01:59.412Z,100097.06
2018-08-11T01:02:30.640Z,100101.81
2018-08-11T01:03:01.733Z,100097.55
2018-08-11T01:03:32.948Z,100096.22
2018-08-11T01:04:04.069Z,100099.36
2018-08-11T01:04:35.228Z,100095.73
2018-08-11T01:05:06.396Z,100098.21
2018-08-11T01:05:37.520Z,100102.36
2018-08-11T01:06:08.632Z,100098.77
2018-08-11T01:06:39.743Z,100101.59
2018-08-11T01:07:10.849Z,100100.27
2018-08-11T01:07:41.964Z,100098.94
2018-08-11T01:08:13.075Z,100109.21
2018-08-11T01:08:44.218Z,100102.19
2018-08-11T01:09:15.334Z,100101.63
2018-08-11T01:09:46.449Z,100104.84
2018-08-11T01:10:17.608Z,100101.92
2018-08-11T01:10:48.753Z,100100.20
2018-08-11T01:11:19.864Z,100106.95
2018-08-11T01:11:50.975Z,100097.66
2018-08-11T01:12:22.080Z,100104.57
2018-08-11T01:12:53.209Z,100099.36
2018-08-11T01:13:24.363Z,100105.23
2018-08-11T01:13:55.476Z,100110.38
2018-08-11T01:14:26.579Z,100104.30
2018-08-11T01:14:57.694Z,100101.08
2018-08-11T01:15:28.840Z,100098.05
2018-08-11T01:15:59.948Z,100106.84
2018-08-11T01:16:31.068Z,100107.72
2018-08-11T01:17:02.182Z,100104.13
2018-08-11T01:17:33.299Z,100107.51
2018-08-11T01:18:04.425Z,100104.30
2018-08-11T01:18:35.653Z,100105.80
2018-08-11T01:19:06.836Z,100106.77
2018-08-11T01:19:37.964Z,100107.02
2018-08-11T01:20:09.080Z,100106.53
2018-08-11T01:20:40.275Z,100104.47
2018-08-11T01:21:11.385Z,100105.41
2018-08-11T01:21:42.549Z,100099.83
2018-08-11T01:22:13.840Z,100101.99
2018-08-11T01:22:44.971Z,100104.27
2018-08-11T01:23:16.209Z,100100.39
2018-08-11T01:23:47.464Z,100100.39
2018-08-11T01:24:18.580Z,100099.06
2018-08-11T01:24:49.752Z,100102.27
2018-08-11T01:25:20.994Z,100099.17
2018-08-11T01:25:52.186Z,100104.65
2018-08-11T01:26:23.308Z,100101.72
2018-08-11T01:26:54.476Z,100099.83
2018-08-11T01:27:25.715Z,100100.48
2018-08-11T01:27:56.830Z,100099.83
2018-08-11T01:28:27.984Z,100097.48
2018-08-11T01:28:59.091Z,100097.27
2018-08-11T01:29:30.310Z,100098.42
2018-08-11T01:30:01.428Z,100100.69
2018-08-11T01:30:33.976Z,100102.22
2018-08-11T01:31:05.157Z,100100.41
2018-08-11T01:31:36.278Z,100092.83
2018-08-11T01:32:07.390Z,100095.97
2018-08-11T01:32:38.499Z,100098.23
2018-08-11T01:33:09.669Z,100092.55
2018-08-11T01:33:40.815Z,100096.62
2018-08-11T01:34:11.928Z,100099.06
2018-08-11T01:34:43.110Z,100095.75
2018-08-11T01:35:14.307Z,100097.07
2018-08-11T01:35:45.488Z,100093.30
2018-08-11T01:36:16.656Z,100093.84
2018-08-11T01:36:47.783Z,100092.34
2018-08-11T01:37:18.907Z,100092.23
2018-08-11T01:37:50.115Z,100089.98
2018-08-11T01:38:21.232Z,100087.78
2018-08-11T01:38:52.384Z,100088.92
2018-08-11T01:39:23.649Z,100085.84
2018-08-11T01:39:54.827Z,100084.69
2018-08-11T01:40:25.949Z,100084.05
2018-08-11T01:40:57.068Z,100088.48
2018-08-11T01:41:28.236Z,100086.97
2018-08-11T01:41:59.368Z,100086.20
2018-08-11T01:42:30.484Z,100090.56
2018-08-11T01:43:01.705Z,100083.45
2018-08-11T01:43:32.879Z,100084.48
2018-08-11T01:44:04.113Z,100087.13
2018-08-11T01:44:35.188Z,100081.83
2018-08-11T01:45:06.408Z,100088.01
2018-08-11T01:45:37.535Z,100084.03
2018-08-11T01:46:08.658Z,100082.80
2018-08-11T01:46:39.776Z,100081.19
2018-08-11T01:47:11.000Z,100078.61
2018-08-11T01:47:42.175Z,100078.22
2018-08-11T01:48:13.343Z,100083.52
2018-08-11T01:48:44.464Z,100080.80
2018-08-11T01:49:15.571Z,100082.42
2018-08-11T01:49:46.683Z,100081.83
2018-08-11T01:50:17.791Z,100082.22
2018-08-11T01:50:48.909Z,100078.34
2018-08-11T01:51:20.130Z,100079.19
2018-08-11T01:51:51.262Z,100076.53
2018-08-11T01:52:22.480Z,100075.80
2018-08-11T01:52:53.596Z,100082.88
2018-08-11T01:53:24.769Z,100078.55
2018-08-11T01:53:55.940Z,100074.25
2018-08-11T01:54:27.157Z,100078.70
2018-08-11T01:54:58.383Z,100077.09
2018-08-11T01:55:29.503Z,100073.68
2018-08-11T01:56:00.667Z,100075.07
2018-08-11T01:56:31.792Z,100076.88
2018-08-11T01:57:03.016Z,100076.39
2018-08-11T01:57:34.231Z,100070.80
2018-08-11T01:58:05.399Z,100075.94
2018-08-11T01:58:36.523Z,100066.18
2018-08-11T01:59:07.668Z,100077.66
2018-08-11T01:59:38.783Z,100067.61
2018-08-11T02:00:09.892Z,100071.97
2018-08-11T02:00:41.058Z,100075.27
2018-08-11T02:01:12.214Z,100070.80
2018-08-11T02:01:43.387Z,100062.02
2018-08-11T02:02:14.495Z,100065.50
2018-08-11T02:02:45.765Z,100065.05
2018-08-11T02:03:16.944Z,100061.14
2018-08-11T02:03:48.069Z,100060.30
2018-08-11T02:04:19.228Z,100061.63
2018-08-11T02:04:50.349Z,100059.92
2018-08-11T02:05:21.527Z,100064.28
2018-08-11T02:05:52.632Z,100062.95
2018-08-11T02:06:23.743Z,100063.44
2018-08-11T02:06:54.860Z,100060.30
2018-08-11T02:07:25.975Z,100061.92
2018-08-11T02:07:57.215Z,100062.20
2018-08-11T02:08:28.389Z,100061.75
2018-08-11T02:08:59.508Z,100053.42
2018-08-11T02:09:30.642Z,100060.98
2018-08-11T02:10:01.757Z,100061.92
2018-08-11T02:10:32.922Z,100060.80
2018-08-11T02:11:04.030Z,100061.34
2018-08-11T02:11:35.194Z,100062.77
2018-08-11T02:12:06.321Z,100063.41
2018-08-11T02:12:37.485Z,100061.70
2018-08-11T02:13:08.636Z,100060.73
2018-08-11T02:13:39.805Z,100063.19
2018-08-11T02:14:10.923Z,100060.99
2018-08-11T02:14:42.116Z,100060.93
2018-08-11T02:15:13.268Z,100060.55
2018-08-11T02:15:44.436Z,100061.48
2018-08-11T02:16:15.559Z,100064.23
2018-08-11T02:16:46.725Z,100059.86
2018-08-11T02:17:17.843Z,100064.29
2018-08-11T02:17:48.999Z,100062.52
2018-08-11T02:18:20.112Z,100065.61
2018-08-11T02:18:51.221Z,100064.68
2018-08-11T02:19:22.341Z,100066.48
2018-08-11T02:19:53.528Z,100064.68
2018-08-11T02:20:24.708Z,100062.12
2018-08-11T02:20:55.891Z,100062.03
2018-08-11T02:21:27.007Z,100069.04
2018-08-11T02:21:58.159Z,100066.00
2018-08-11T02:22:29.264Z,100066.78
2018-08-11T02:23:00.429Z,100065.91
2018-08-11T02:23:31.543Z,100066.00
2018-08-11T02:24:02.658Z,100067.03
2018-08-11T02:24:33.881Z,100068.91
2018-08-11T02:25:05.001Z,100064.09
2018-08-11T02:25:36.123Z,100065.13
2018-08-11T02:26:07.235Z,100064.84
2018-08-11T02:26:38.400Z,100058.77
2018-08-11T02:27:09.561Z,100072.49
2018-08-11T02:27:40.745Z,100067.84
2018-08-11T02:28:11.900Z,100069.16
2018-08-11T02:28:43.072Z,100066.12
2018-08-11T02:29:14.188Z,100068.88
2018-08-11T02:29:45.313Z,100071.13
2018-08-11T02:30:16.484Z,100068.67
2018-08-11T02:30:47.676Z,100068.70
2018-08-11T02:31:18.796Z,100068.34
2018-08-11T02:31:49.961Z,100071.54
2018-08-11T02:32:21.140Z,100068.41
2018-08-11T02:32:52.357Z,100069.73
2018-08-11T02:33:23.613Z,100073.80
2018-08-11T02:33:54.842Z,100073.80
2018-08-11T02:34:26.084Z,100070.67
2018-08-11T02:34:57.203Z,100071.00
2018-08-11T02:35:28.345Z,100071.73
2018-08-11T02:35:59.581Z,100069.03
2018-08-11T02:36:30.768Z,100066.92
2018-08-11T02:37:02.244Z,100070.61
2018-08-11T02:37:33.379Z,100070.22
2018-08-11T02:38:04.581Z,100069.44
2018-08-11T02:38:35.728Z,100069.83
2018-08-11T02:39:06.843Z,100068.12
2018-08-11T02:39:38.021Z,100070.77
2018-08-11T02:40:09.239Z,100071.16
2018-08-11T02:40:40.476Z,100070.77
2018-08-11T02:41:11.616Z,100071.50
2018-08-11T02:41:42.727Z,100068.08
2018-08-11T02:43:48.200Z,100067.81
2018-08-11T02:44:19.396Z,100068.16
2018-08-11T02:44:50.518Z,100067.86
2018-08-11T02:45:21.742Z,100068.11
2018-08-11T02:45:52.880Z,100067.33
2018-08-11T02:46:23.991Z,100065.61
2018-08-11T02:46:55.156Z,100067.52
2018-08-11T02:47:26.280Z,100068.14
2018-08-11T02:47:57.403Z,100065.11
2018-08-11T02:48:28.586Z,100066.91
2018-08-11T02:48:59.768Z,100065.59
2018-08-11T02:49:30.972Z,100063.48
2018-08-11T02:50:02.148Z,100058.69
2018-08-11T02:50:33.426Z,100062.71
2018-08-11T02:51:04.618Z,100058.34
2018-08-11T02:51:35.797Z,100064.42
2018-08-11T02:52:06.981Z,100056.88
2018-08-11T02:52:38.108Z,100061.63
2018-08-11T02:53:09.338Z,100061.92
2018-08-11T02:53:40.551Z,100059.48
2018-08-11T02:54:11.672Z,100069.04
2018-08-11T02:54:42.788Z,100063.66
2018-08-11T02:55:13.899Z,100062.81
2018-08-11T02:55:45.048Z,100069.52
2018-08-11T02:56:16.261Z,100063.36
2018-08-11T02:56:47.387Z,100068.26
2018-08-11T02:57:18.619Z,100055.13
2018-08-11T02:57:49.758Z,100060.32
2018-08-11T02:58:20.878Z,100059.48
2018-08-11T02:58:52.063Z,100064.77
2018-08-11T02:59:23.227Z,100066.73
2018-08-11T02:59:54.352Z,100066.44
2018-08-11T03:00:25.514Z,100062.56
2018-08-11T03:00:57.324Z,100063.97
2018-08-11T03:01:28.530Z,100061.96
2018-08-11T03:01:59.709Z,100067.41
2018-08-11T03:02:30.980Z,100064.37
2018-08-11T03:03:02.066Z,100063.13
2018-08-11T03:03:33.258Z,100065.48
2018-08-11T03:04:04.388Z,100064.16
2018-08-11T03:04:35.565Z,100062.45
2018-08-11T03:05:06.748Z,100065.88
2018-08-11T03:05:37.921Z,100072.88
2018-08-11T03:06:09.078Z,100065.88
2018-08-11T03:06:40.215Z,100066.80
2018-08-11T03:07:11.366Z,100067.83
2018-08-11T03:07:42.539Z,100065.19
2018-08-11T03:08:13.666Z,100069.98
2018-08-11T03:08:44.865Z,100063.38
2018-08-11T03:09:15.995Z,100065.00
2018-08-11T03:09:47.224Z,100071.16
2018-08-11T03:10:18.346Z,100064.94
2018-08-11T03:10:49.532Z,100061.36
2018-08-11T03:11:20.716Z,100062.11
2018-08-11T03:11:51.950Z,100063.28
2018-08-11T03:12:23.175Z,100058.83
2018-08-11T03:12:54.417Z,100056.48
2018-08-11T03:13:25.599Z,100057.36
2018-08-11T03:13:56.802Z,100060.45
2018-08-11T03:14:27.934Z,100052.22
2018-08-11T03:14:59.116Z,100061.18
2018-08-11T03:15:30.237Z,100056.13
2018-08-11T03:16:01.377Z,100059.26
2018-08-11T03:16:32.519Z,100053.58
2018-08-11T03:17:03.734Z,100058.48
2018-08-11T03:17:34.892Z,100055.44
2018-08-11T03:18:06.069Z,100053.58
2018-08-11T03:18:37.200Z,100056.61
2018-08-11T03:19:08.341Z,100051.72
2018-08-11T03:19:39.454Z,100055.73
2018-08-11T03:20:10.574Z,100053.19
2018-08-11T03:20:41.731Z,100061.13
2018-08-11T03:21:12.945Z,100056.77
2018-08-11T03:21:44.114Z,100056.95
2018-08-11T03:22:15.236Z,100059.11
2018-08-11T03:22:46.400Z,100059.98
2018-08-11T03:23:17.566Z,100061.13
2018-08-11T03:23:48.820Z,100052.26
2018-08-11T03:24:20.025Z,100054.36
2018-08-11T03:24:51.212Z,100054.66
2018-08-11T03:25:22.376Z,100058.72
2018-08-11T03:25:53.568Z,100063.44
2018-08-11T03:26:24.692Z,100055.30
2018-08-11T03:26:55.856Z,100051.72
2018-08-11T03:27:27.108Z,100058.72
2018-08-11T03:27:58.336Z,100057.55
2018-08-11T03:28:29.467Z,100058.87
2018-08-11T03:29:00.593Z,100052.80
2018-08-11T03:29:31.716Z,100058.48
2018-08-11T03:30:02.945Z,100056.22
2018-08-11T03:30:34.100Z,100062.45
2018-08-11T03:31:05.224Z,100060.19
2018-08-11T03:31:36.461Z,100059.66
2018-08-11T03:32:07.708Z,100067.59
2018-08-11T03:32:38.836Z,100058.33
2018-08-11T03:33:10.057Z,100059.66
2018-08-11T03:33:41.277Z,100062.30
2018-08-11T03:34:12.388Z,100059.26
2018-08-11T03:34:43.517Z,100058.96
2018-08-11T03:35:14.750Z,100057.87
2018-08-11T03:35:45.936Z,100061.70
2018-08-11T03:36:17.055Z,100062.75
2018-08-11T03:36:48.226Z,100058.92
2018-08-11T03:37:19.378Z,100055.95
2018-08-11T03:37:50.560Z,100059.00
2018-08-11T03:38:21.707Z,100054.15
2018-08-11T03:38:52.884Z,100059.48
2018-08-11T03:39:24.014Z,100056.41
2018-08-11T03:39:55.252Z,100050.47
2018-08-11T03:40:26.379Z,100052.92
2018-08-11T03:40:57.491Z,100055.87
2018-08-11T03:41:28.608Z,100055.42
2018-08-11T03:41:59.722Z,100054.55
2018-08-11T03:42:30.954Z,100056.55
2018-08-11T03:43:02.084Z,100050.28
2018-08-11T03:43:33.284Z,100046.89
2018-08-11T03:44:04.472Z,100057.24
2018-08-11T03:44:35.705Z,100056.11
2018-08-11T03:45:06.944Z,100052.48
2018-08-11T03:45:38.137Z,100052.58
2018-08-11T03:46:09.283Z,100053.60
2018-08-11T03:46:40.393Z,100053.21
2018-08-11T03:47:11.624Z,100054.53
2018-08-11T03:47:42.755Z,100049.24
2018-08-11T03:48:13.921Z,100053.13
2018-08-11T03:48:45.096Z,100054.34
2018-08-11T03:49:16.277Z,100054.58
2018-08-11T03:49:47.406Z,100060.92
2018-08-11T03:50:18.681Z,100051.80
2018-08-11T03:50:49.831Z,100055.87
2018-08-11T03:51:21.015Z,100057.48
2018-08-11T03:51:52.136Z,100061.45
2018-08-11T03:52:23.264Z,100057.67
2018-08-11T03:52:54.389Z,100057.38
2018-08-11T03:53:25.625Z,100057.09
2018-08-11T03:53:56.804Z,100055.92
2018-08-11T03:54:27.981Z,100061.85
2018-08-11T03:54:59.157Z,100061.02
2018-08-11T03:55:30.329Z,100062.72
2018-08-11T03:56:01.561Z,100058.75
2018-08-11T03:56:32.696Z,100060.47
2018-08-11T03:57:03.812Z,100056.02
2018-08-11T03:57:34.983Z,100059.34
2018-08-11T03:58:06.135Z,100054.09
2018-08-11T03:58:37.265Z,100054.33
2018-08-11T03:59:08.459Z,100052.24
2018-08-11T03:59:39.638Z,100057.80
2018-08-11T04:00:11.103Z,100060.49
2018-08-11T04:00:42.267Z,100059.59
2018-08-11T04:01:13.388Z,100058.63
2018-08-11T04:01:44.508Z,100055.02
2018-08-11T04:02:15.627Z,100055.66
2018-08-11T04:02:46.747Z,100055.56
2018-08-11T04:03:17.875Z,100062.14
2018-08-11T04:03:49.037Z,100051.91
2018-08-11T04:04:20.152Z,100059.59
2018-08-11T04:04:51.268Z,100058.29
2018-08-11T04:05:22.424Z,100055.14
2018-08-11T04:05:53.601Z,100057.65
2018-08-11T04:06:24.783Z,100062.62
2018-08-11T04:06:55.902Z,100056.27
2018-08-11T04:07:27.895Z,100059.22
2018-08-11T04:07:59.003Z,100059.43
2018-08-11T04:08:30.167Z,100062.05
2018-08-11T04:09:01.333Z,100061.17
2018-08-11T04:09:32.447Z,100058.77
2018-08-11T04:10:04.050Z,100056.52
2018-08-11T04:10:35.205Z,100053.24
2018-08-11T04:11:06.316Z,100053.73
2018-08-11T04:11:37.485Z,100054.89
2018-08-11T04:12:08.721Z,100061.37
2018-08-11T04:12:39.951Z,100059.22
2018-08-11T04:13:11.182Z,100062.39
2018-08-11T04:13:42.315Z,100062.14
2018-08-11T04:14:13.479Z,100066.66
2018-08-11T04:14:44.647Z,100064.48
2018-08-11T04:15:15.868Z,100061.31
2018-08-11T04:15:47.036Z,100060.64
2018-08-11T04:16:18.208Z,100061.83
2018-08-11T04:16:49.315Z,100062.33
2018-08-11T04:17:20.427Z,100063.31
2018-08-11T04:17:51.649Z,100063.00
2018-08-11T04:18:22.767Z,100066.80
2018-08-11T04:18:53.896Z,100063.30
2018-08-11T04:19:25.139Z,100064.91
2018-08-11T04:19:56.259Z,100065.02
2018-08-11T04:20:27.419Z,100058.64
2018-08-11T04:20:58.535Z,100063.34
2018-08-11T04:21:29.679Z,100063.77
2018-08-11T04:22:00.791Z,100058.86
2018-08-11T04:22:31.919Z,100063.07
2018-08-11T04:23:03.071Z,100062.31
2018-08-11T04:23:34.288Z,100055.58
2018-08-11T04:24:05.493Z,100060.09
2018-08-11T04:24:36.613Z,100059.17
2018-08-11T04:25:07.788Z,100056.42
2018-08-11T04:25:38.969Z,100058.24
2018-08-11T04:26:10.131Z,100060.22
2018-08-11T04:26:41.368Z,100058.78
2018-08-11T04:27:12.487Z,100064.21
2018-08-11T04:27:43.591Z,100062.17
2018-08-11T04:28:14.795Z,100067.95
2018-08-11T04:28:45.966Z,100059.70
2018-08-11T04:29:17.168Z,100062.94
2018-08-11T04:29:48.329Z,100064.48
2018-08-11T04:30:19.510Z,100062.69
2018-08-11T04:30:50.784Z,100061.47
2018-08-11T04:31:21.920Z,100068.22
2018-08-11T04:31:53.184Z,100068.13
2018-08-11T04:32:24.354Z,100062.00
2018-08-11T04:32:55.528Z,100069.52
2018-08-11T04:33:26.709Z,100068.39
2018-08-11T04:33:57.926Z,100064.73
2018-08-11T04:34:29.103Z,100071.44
2018-08-11T04:35:00.359Z,100069.56
2018-08-11T04:35:31.544Z,100063.32
2018-08-11T04:36:02.701Z,100067.20
2018-08-11T04:36:33.808Z,100071.08
2018-08-11T04:37:05.050Z,100066.55
2018-08-11T04:37:36.212Z,100069.77
2018-08-11T04:38:07.328Z,100077.55
2018-08-11T04:38:38.452Z,100070.36
2018-08-11T04:39:09.674Z,100076.22
2018-08-11T04:39:40.936Z,100075.20
2018-08-11T04:40:12.173Z,100073.22
2018-08-11T04:40:43.293Z,100069.80
2018-08-11T04:41:14.489Z,100075.20
2018-08-11T04:41:45.669Z,100074.16
2018-08-11T04:42:16.804Z,100077.58
2018-08-11T04:42:48.004Z,100074.27
2018-08-11T04:43:19.183Z,100073.70
2018-08-11T04:43:50.344Z,100077.02
2018-08-11T04:44:21.452Z,100071.88
2018-08-11T04:44:52.641Z,100079.10
2018-08-11T04:45:23.818Z,100079.66
2018-08-11T04:45:54.988Z,100075.84
2018-08-11T04:46:26.172Z,100073.97
2018-08-11T04:46:57.385Z,100079.48
2018-08-11T04:47:29.134Z,100078.70
2018-08-11T04:48:00.242Z,100079.65
2018-08-11T04:48:31.352Z,100080.59
2018-08-11T04:49:02.526Z,100079.27
2018-08-11T04:49:33.665Z,100082.79
2018-08-11T04:50:04.842Z,100082.20
2018-08-11T04:50:35.959Z,100077.17
2018-08-11T04:51:07.126Z,100078.81
2018-08-11T04:51:38.368Z,100078.52
2018-08-11T04:52:09.548Z,100084.03
2018-08-11T04:52:40.722Z,100076.98
2018-08-11T04:53:12.459Z,100084.11
2018-08-11T04:53:43.668Z,100080.69
2018-08-11T04:54:14.780Z,100081.73
2018-08-11T04:54:46.001Z,100079.26
2018-08-11T04:55:17.181Z,100083.34
2018-08-11T04:55:48.396Z,100078.77
2018-08-11T04:56:19.575Z,100080.38
2018-08-11T04:56:50.687Z,100083.23
2018-08-11T04:57:21.866Z,100080.41
2018-08-11T04:57:52.985Z,100082.29
2018-08-11T04:58:24.092Z,100076.20
2018-08-11T04:58:55.266Z,100075.25
2018-08-11T04:59:26.447Z,100083.38
2018-08-11T04:59:57.598Z,100073.94
2018-08-11T05:00:28.767Z,100079.09
2018-08-11T05:00:59.931Z,100078.07
2018-08-11T05:01:31.116Z,100075.25
2018-08-11T05:02:02.284Z,100078.98
2018-08-11T05:02:33.407Z,100083.94
2018-08-11T05:03:04.520Z,100084.39
2018-08-11T05:03:35.698Z,100069.70
2018-08-11T05:04:06.915Z,100079.50
2018-08-11T05:04:38.092Z,100071.88
2018-08-11T05:05:09.233Z,100072.33
2018-08-11T05:05:40.410Z,100079.37
2018-08-11T05:06:11.588Z,100077.41
2018-08-11T05:06:42.761Z,100073.16
2018-08-11T05:07:13.872Z,100076.79
2018-08-11T05:07:45.001Z,100076.17
2018-08-11T05:08:16.169Z,100080.20
2018-08-11T05:08:47.344Z,100081.98
2018-08-11T05:09:18.511Z,100080.98
2018-08-11T05:09:49.679Z,100074.53
2018-08-11T05:10:20.876Z,100079.62
2018-08-11T05:10:51.995Z,100076.16
2018-08-11T05:11:23.165Z,100073.72
2018-08-11T05:11:54.373Z,100077.77
2018-08-11T05:12:25.489Z,100075.47
2018-08-11T05:12:56.712Z,100081.85
2018-08-11T05:13:27.843Z,100077.20
2018-08-11T05:13:58.955Z,100071.39
2018-08-11T05:14:30.105Z,100072.55
2018-08-11T05:15:01.223Z,100074.30
2018-08-11T05:15:32.403Z,100068.86
2018-08-11T05:16:03.708Z,100071.50
2018-08-11T05:16:34.941Z,100070.15
2018-08-11T05:17:06.060Z,100069.95
2018-08-11T05:17:37.228Z,100070.98
2018-08-11T05:18:08.404Z,100074.17
2018-08-11T05:18:39.531Z,100072.05
2018-08-11T05:19:10.705Z,100071.41
2018-08-11T05:19:41.880Z,100071.16
2018-08-11T05:20:13.011Z,100064.16
2018-08-11T05:20:44.134Z,100072.27
2018-08-11T05:21:15.298Z,100066.64
2018-08-11T05:21:46.620Z,100068.09
2018-08-11T05:22:17.732Z,100068.86
2018-08-11T05:22:48.902Z,100067.84
2018-08-11T05:23:20.073Z,100073.63
2018-08-11T05:23:51.196Z,100067.34
2018-08-11T05:24:22.310Z,100068.09
2018-08-11T05:24:53.472Z,100074.48
2018-08-11T05:25:24.651Z,100074.89
2018-08-11T05:25:55.772Z,100069.34
2018-08-11T05:26:26.957Z,100072.59
2018-08-11T05:26:58.119Z,100070.64
2018-08-11T05:27:29.236Z,100070.95
2018-08-11T05:28:00.361Z,100074.81
2018-08-11T05:28:31.537Z,100082.91
2018-08-11T05:29:02.662Z,100072.46
2018-08-11T05:29:33.772Z,100073.66
2018-08-11T05:30:04.931Z,100073.34
2018-08-11T05:30:36.063Z,100070.48
2018-08-11T05:31:07.209Z,100076.52
2018-08-11T05:31:38.339Z,100079.55
2018-08-11T05:32:09.460Z,100072.74
2018-08-11T05:32:40.580Z,100078.77
2018-08-11T05:33:11.765Z,100080.66
2018-08-11T05:33:42.880Z,100080.83
2018-08-11T05:34:14.052Z,100081.18
2018-08-11T05:34:45.181Z,100075.45
2018-08-11T05:35:16.353Z,100085.59
2018-08-11T05:35:47.523Z,100082.56
2018-08-11T05:36:18.716Z,100080.91
2018-08-11T05:36:49.959Z,100077.27
2018-08-11T05:37:21.088Z,100085.63
2018-08-11T05:37:52.353Z,100080.03
2018-08-11T05:38:23.537Z,100080.75
2018-08-11T05:38:54.707Z,100076.95
2018-08-11T05:39:25.850Z,100084.37
2018-08-11T05:39:56.963Z,100084.45
2018-08-11T05:40:28.147Z,100079.53
2018-08-11T05:40:59.295Z,100081.13
2018-08-11T05:41:30.564Z,100082.87
2018-08-11T05:42:01.702Z,100085.70
2018-08-11T05:42:32.887Z,100083.27
2018-08-11T05:43:04.000Z,100080.82
2018-08-11T05:43:35.165Z,100082.95
2018-08-11T05:44:06.287Z,100083.67
2018-08-11T05:44:37.416Z,100083.18
2018-08-11T05:45:08.642Z,100085.95
2018-08-11T05:45:39.766Z,100086.88
2018-08-11T05:46:10.930Z,100084.72
2018-08-11T05:46:42.058Z,100083.00
2018-08-11T05:47:13.234Z,100090.70
2018-08-11T05:47:44.365Z,100082.60
2018-08-11T05:48:15.549Z,100078.11
2018-08-11T05:48:46.724Z,100082.70
2018-08-11T05:49:17.839Z,100078.43
2018-08-11T05:49:49.049Z,100081.84
2018-08-11T05:50:20.179Z,100079.99
2018-08-11T05:50:51.299Z,100078.75
2018-08-11T05:51:22.536Z,100077.23
2018-08-11T05:51:53.671Z,100079.83
2018-08-11T05:52:24.787Z,100080.86
2018-08-11T05:52:55.980Z,100081.74
2018-08-11T05:53:27.091Z,100079.31
2018-08-11T05:53:58.322Z,100085.21
2018-08-11T05:54:29.508Z,100079.02
2018-08-11T05:55:00.621Z,100080.00
2018-08-11T05:55:31.789Z,100077.31
2018-08-11T05:56:03.004Z,100077.06
2018-08-11T05:56:34.160Z,100084.41
2018-08-11T05:57:05.329Z,100082.80